VUELOS DE BAJO NIVEL DESDE SUPERFICIE HASTA 24,000 PIES.

 
 
VALIDO DESDE 271200Z...…………………….…………………HASTA 280000Z

SANTO DOMINGO FIR...PORT-AU-PRINCE FIRHISPANIOLA... SCT020 SCT050. LYRS OCNL BKN TOP 120. ISOL SHRA. BECM1618 BKN025 BKN045 TOP TO FL240. WDLY SCT TSRA. OTLK...MVFRCIG SHRA TSRA BECM 03Z VFR.W 80W...SCT025-SKC. 18Z SCT025 SCT060. ISOL SHRA OR TSRA.OTLK...VFR WTRS N OF 24N81W-18N68W LN...BKN025 BKN050 TOP ABV FL240. SCTSHRA/WDLY SCT TSRA. OTLK...MVFR CIG SHRA TSRA.WTRS ELSW TO S...SCT025 SCT070. LYRS OCNL BKN TOP 150. ISOL SHRAOR TSRA. OTLK...VFR SHRA.

 

 

5,000 FT.

10,000 FT.

18,000 FT.

24,000 FT.

MDSD

1305KT+18ºC

1305KT+08ºC

2910KT-07ºC

2815KT-18ºC

MTPP

1305KT+18ºC

1305KT+08ºC

2610KT-07ºC

3520KT-18ºC

TJSJ

0910KT+16ºC

0305KT+07ºC

2615KT-07ºC

3010KT-19ºC

 

 

 

 

 

 

 


FTDR31 MDSD 271000Z 
TAF

TAF MDPP 271000Z 2712/2812 00000KT 9999 SCT018 PROB30 2712/2717 7000 -TSRA FEW015CB BKN016 BKN070 BECMG 2713/2715 09010KT=

 

TAF MDST 271000Z 2712/2812 13010KT  9999  SCT020  BECMG  2712/2714  08012KT= 

 

TAF MDPC 271000Z 2712/2812  09010KT 9999 SCT018 PROB30 2718/2722 7000 RA BKN016 SCT070=

 

TAF MDBH  271000Z 2712/2812 13012KT 9999 FEW014CB FEW014 BKN080 PROB30 2718/2700 6000 -TSRA FEW012CB BKN014 OVC070=

 

TAF MDJB 271000Z 2712/2812 00000KT 9999 FEW016CB SCT018 SCT080 PROB30 2712/2718 6000 -TSRA FEW014CB BKN016 BKN070=

 

TAF MDSD 271000Z 2712/2812 05004KT 9999 SCT016 PROB30 2712/2718 6000 -TSRA FEW014CB BKN016 BKN070=

 

TAF MDLR 271000Z 2712/2812 00000KT 9999 SCT018 SCT018 PROB30 2712/2718 6000 -TSRA FEW014CB BKN016 BKN070 BECMG 2713/2715 07004KT=

 

TAF MDCY 271000Z 2712/2812 00000KT 9999 FEW016CB SCT018 SCT080 PROB30 2712/2718 6000 -TSRA FEW012CB BKN014 BKN070 BECMG 2714/2716 16006KT=

 

TAF KMIA 270900Z 2709/2806 14007KT P6SM SCT015 SCT050 FM271400 14010KT P6SM SCT035 SCT060 FM271700 15012KT P6SM SCT030 SCT060 FM280100 12008KT P6SM FEW030=

 

TAF KJFK 270835Z 2709/2812 VRB02KT 1SM -DZ BR OVC003 TEMPO 2709/2711 3/4SM -DZ BR FM271300 VRB03KT 2SM -DZ BR BKN003 OVC008 FM271500 16008KT 6SM BR BKN008 OVC015 FM271700 15011KT P6SM SCT010 BKN025 FM272100 14010KT P6SM SCT008 BKN015 FM272300 14009KT 4SM BR BKN007 OVC015 FM280100 14008KT 1 1/2SM -DZ BR OVC005 FM280300 15008KT 1SM -DZ BR OVC004 FM280600 VRB04KT 3/4SM -DZ BR VV003=

 

TAF TJSJ 270535Z 2706/2806 10005KT P6SM FEW060 FM271300 08012KT P6SM FEW030 SCT050 FM271630 VRB12KT P6SM VCTS SCT025CB BKN050 FM272300 09008KT P6SM SCT060=

 

TAF MUHA 270500Z 2706/2806 VRB03KT 9000 FEW030 BECMG 2713/2715 17010KT BECMG 2801/2803 VRB02KT=

 

TAF MUGM 2707/2807 34006KT 9999 SCT030 SCT100 QNH2989INS BECMG 2714/2716 15012KT 9999 VCTS SCT032CB BKN080 BKN260 QNH2985INS TEMPO 2718/2800 6000 SHRA OVC050 FM080300 09010KT 9999 BKN100 QNH2987INS T22/2711Z T31/2718Z FN00151=

 

TAF TNCC 270900Z 2712/2812 11014G25KT 9999 SCT020 TEMPO 2808/2812 BKN014=

 

TAF MKJP 270515Z 2706/2806 12010KT 9999 FEW022 SCT038 BECMG 2713/2715 14018G28KT TEMPO 2720/2723 SCT020 FEW022CB BECMG 2803/2805 11007KT=

 

 

 

PREPARADO POR: BILLY  DE LA CRUZ. 27 DE ABRIL DEL 2017-